Poplar Grove, Illinois
Current Conditions -  °F | °C
As of 9:54 PM on Thursday 18 Dec 2014 (Local Time) from KRFD Reporting Station
Overcast Overcast  
Wind Chill: 27°   Ceiling: 2100
Heat Index: 27°   Visibility: 10mi
Dew Point: 19°   Wind: 3mph
Humidity: 72%   Direction: 250°WSW
Pressure: 30.29"   Gusts: NA
Location:  42.37°N, 88.82°W
Report Text: KRFD 190354Z 25003KT 10SM OVC021 M03/M07 A3029 RMK AO2 SLP267 T10281072
Loading
Personal Weather Stations






























Interactive Weather Map New forecast layout! Learn more

10-Day Weather Forecast

Advertisements
Track Severe Weather on mobile